sensor_id;sensor_type;location;lat;lon;timestamp;P1;durP1;ratioP1;P2;durP2;ratioP2
17631;SDS011;8934;51.194;17.150;2023-05-07T00:00:19;8.45;;;4.95;;
17631;SDS011;8934;51.194;17.150;2023-05-07T00:03:07;7.25;;;4.57;;
17631;SDS011;8934;51.194;17.150;2023-05-07T00:05:55;7.50;;;4.55;;
17631;SDS011;8934;51.194;17.150;2023-05-07T00:08:43;5.80;;;4.75;;
17631;SDS011;8934;51.194;17.150;2023-05-07T00:11:32;6.32;;;3.72;;
17631;SDS011;8934;51.194;17.150;2023-05-07T00:14:21;6.18;;;4.28;;
17631;SDS011;8934;51.194;17.150;2023-05-07T00:17:09;9.30;;;4.53;;
17631;SDS011;8934;51.194;17.150;2023-05-07T00:19:57;7.03;;;5.38;;
17631;SDS011;8934;51.194;17.150;2023-05-07T00:22:44;6.82;;;4.78;;
17631;SDS011;8934;51.194;17.150;2023-05-07T00:25:32;5.13;;;4.43;;
17631;SDS011;8934;51.194;17.150;2023-05-07T00:28:21;7.22;;;4.75;;
17631;SDS011;8934;51.194;17.150;2023-05-07T00:31:09;6.50;;;4.63;;
17631;SDS011;8934;51.194;17.150;2023-05-07T00:33:57;7.18;;;5.28;;
17631;SDS011;8934;51.194;17.150;2023-05-07T00:36:44;6.53;;;5.88;;
17631;SDS011;8934;51.194;17.150;2023-05-07T00:39:32;8.32;;;5.53;;
17631;SDS011;8934;51.194;17.150;2023-05-07T00:42:19;8.35;;;5.88;;
17631;SDS011;8934;51.194;17.150;2023-05-07T00:45:09;9.45;;;5.72;;
17631;SDS011;8934;51.194;17.150;2023-05-07T00:47:57;6.00;;;5.30;;
17631;SDS011;8934;51.194;17.150;2023-05-07T00:50:47;7.90;;;5.28;;
17631;SDS011;8934;51.194;17.150;2023-05-07T00:53:35;6.65;;;5.28;;
17631;SDS011;8934;51.194;17.150;2023-05-07T00:56:22;7.38;;;5.57;;
17631;SDS011;8934;51.194;17.150;2023-05-07T00:59:11;15.48;;;5.60;;
17631;SDS011;8934;51.194;17.150;2023-05-07T01:02:00;9.07;;;5.90;;
17631;SDS011;8934;51.194;17.150;2023-05-07T01:04:48;9.02;;;6.13;;
17631;SDS011;8934;51.194;17.150;2023-05-07T01:07:36;7.43;;;5.65;;
17631;SDS011;8934;51.194;17.150;2023-05-07T01:10:25;8.75;;;5.65;;
17631;SDS011;8934;51.194;17.150;2023-05-07T01:13:13;7.57;;;5.60;;
17631;SDS011;8934;51.194;17.150;2023-05-07T01:16:02;6.63;;;4.85;;
17631;SDS011;8934;51.194;17.150;2023-05-07T01:18:52;9.15;;;6.30;;
17631;SDS011;8934;51.194;17.150;2023-05-07T01:21:39;7.97;;;6.25;;
17631;SDS011;8934;51.194;17.150;2023-05-07T01:24:36;9.15;;;6.15;;
17631;SDS011;8934;51.194;17.150;2023-05-07T01:27:26;9.35;;;6.10;;
17631;SDS011;8934;51.194;17.150;2023-05-07T01:30:13;7.88;;;6.50;;
17631;SDS011;8934;51.194;17.150;2023-05-07T01:33:03;6.63;;;5.35;;
17631;SDS011;8934;51.194;17.150;2023-05-07T01:35:53;7.88;;;6.13;;
17631;SDS011;8934;51.194;17.150;2023-05-07T01:38:41;8.15;;;5.32;;
17631;SDS011;8934;51.194;17.150;2023-05-07T01:41:30;6.53;;;5.40;;
17631;SDS011;8934;51.194;17.150;2023-05-07T01:44:18;7.55;;;5.53;;
17631;SDS011;8934;51.194;17.150;2023-05-07T01:47:06;8.18;;;5.03;;
17631;SDS011;8934;51.194;17.150;2023-05-07T01:49:55;9.88;;;5.25;;
17631;SDS011;8934;51.194;17.150;2023-05-07T01:52:44;6.85;;;5.85;;
17631;SDS011;8934;51.194;17.150;2023-05-07T01:55:31;10.45;;;5.88;;
17631;SDS011;8934;51.194;17.150;2023-05-07T01:58:20;9.93;;;6.72;;
17631;SDS011;8934;51.194;17.150;2023-05-07T02:01:08;8.98;;;6.60;;
17631;SDS011;8934;51.194;17.150;2023-05-07T02:03:56;8.07;;;6.00;;
17631;SDS011;8934;51.194;17.150;2023-05-07T02:06:47;9.88;;;5.90;;
17631;SDS011;8934;51.194;17.150;2023-05-07T02:09:35;8.48;;;6.00;;
17631;SDS011;8934;51.194;17.150;2023-05-07T02:12:23;10.43;;;7.10;;
17631;SDS011;8934;51.194;17.150;2023-05-07T02:15:12;9.13;;;6.40;;
17631;SDS011;8934;51.194;17.150;2023-05-07T02:18:00;9.43;;;6.55;;
17631;SDS011;8934;51.194;17.150;2023-05-07T02:20:50;7.90;;;6.65;;
17631;SDS011;8934;51.194;17.150;2023-05-07T02:23:38;8.52;;;5.53;;
17631;SDS011;8934;51.194;17.150;2023-05-07T02:26:26;9.57;;;6.22;;
17631;SDS011;8934;51.194;17.150;2023-05-07T02:29:13;9.65;;;6.47;;
17631;SDS011;8934;51.194;17.150;2023-05-07T02:32:03;9.38;;;5.95;;
17631;SDS011;8934;51.194;17.150;2023-05-07T02:34:51;11.07;;;6.25;;
17631;SDS011;8934;51.194;17.150;2023-05-07T02:37:39;9.43;;;5.55;;
17631;SDS011;8934;51.194;17.150;2023-05-07T02:40:26;8.63;;;6.03;;
17631;SDS011;8934;51.194;17.150;2023-05-07T02:43:14;8.60;;;5.90;;
17631;SDS011;8934;51.194;17.150;2023-05-07T02:46:05;9.18;;;5.75;;
17631;SDS011;8934;51.194;17.150;2023-05-07T02:49:00;7.07;;;5.75;;
17631;SDS011;8934;51.194;17.150;2023-05-07T02:51:48;7.75;;;5.82;;
17631;SDS011;8934;51.194;17.150;2023-05-07T02:54:40;10.48;;;5.57;;
17631;SDS011;8934;51.194;17.150;2023-05-07T02:57:28;9.55;;;5.82;;
17631;SDS011;8934;51.194;17.150;2023-05-07T03:00:16;7.78;;;5.97;;
17631;SDS011;8934;51.194;17.150;2023-05-07T03:03:16;8.10;;;5.75;;
17631;SDS011;8934;51.194;17.150;2023-05-07T03:06:06;11.73;;;6.25;;
17631;SDS011;8934;51.194;17.150;2023-05-07T03:08:54;7.78;;;5.70;;
17631;SDS011;8934;51.194;17.150;2023-05-07T03:11:41;8.55;;;5.80;;
17631;SDS011;8934;51.194;17.150;2023-05-07T03:14:29;8.43;;;5.68;;
17631;SDS011;8934;51.194;17.150;2023-05-07T03:17:17;8.82;;;5.88;;
17631;SDS011;8934;51.194;17.150;2023-05-07T03:20:05;6.30;;;4.95;;
17631;SDS011;8934;51.194;17.150;2023-05-07T03:22:57;7.82;;;4.40;;
17631;SDS011;8934;51.194;17.150;2023-05-07T03:25:45;6.28;;;4.75;;
17631;SDS011;8934;51.194;17.150;2023-05-07T03:28:32;7.55;;;5.13;;
17631;SDS011;8934;51.194;17.150;2023-05-07T03:31:23;6.93;;;5.30;;
17631;SDS011;8934;51.194;17.150;2023-05-07T03:34:11;6.88;;;5.30;;
17631;SDS011;8934;51.194;17.150;2023-05-07T03:36:58;9.13;;;6.35;;
17631;SDS011;8934;51.194;17.150;2023-05-07T03:39:48;7.88;;;6.85;;
17631;SDS011;8934;51.194;17.150;2023-05-07T03:42:36;9.95;;;7.22;;
17631;SDS011;8934;51.194;17.150;2023-05-07T03:45:24;9.20;;;6.55;;
17631;SDS011;8934;51.194;17.150;2023-05-07T03:48:25;11.10;;;7.68;;
17631;SDS011;8934;51.194;17.150;2023-05-07T03:51:15;10.50;;;7.55;;
17631;SDS011;8934;51.194;17.150;2023-05-07T03:54:03;10.55;;;7.97;;
17631;SDS011;8934;51.194;17.150;2023-05-07T03:56:52;12.20;;;7.75;;
17631;SDS011;8934;51.194;17.150;2023-05-07T03:59:40;9.88;;;8.13;;
17631;SDS011;8934;51.194;17.150;2023-05-07T04:02:28;9.88;;;7.93;;
17631;SDS011;8934;51.194;17.150;2023-05-07T04:05:16;11.88;;;7.88;;
17631;SDS011;8934;51.194;17.150;2023-05-07T04:08:07;11.40;;;8.20;;
17631;SDS011;8934;51.194;17.150;2023-05-07T04:11:00;11.88;;;8.02;;
17631;SDS011;8934;51.194;17.150;2023-05-07T04:13:51;10.27;;;7.68;;
17631;SDS011;8934;51.194;17.150;2023-05-07T04:16:41;12.60;;;7.78;;
17631;SDS011;8934;51.194;17.150;2023-05-07T04:19:29;11.82;;;7.97;;
17631;SDS011;8934;51.194;17.150;2023-05-07T04:22:16;11.18;;;7.75;;
17631;SDS011;8934;51.194;17.150;2023-05-07T04:25:04;10.40;;;7.65;;
17631;SDS011;8934;51.194;17.150;2023-05-07T04:27:52;7.63;;;6.82;;
17631;SDS011;8934;51.194;17.150;2023-05-07T04:30:46;9.75;;;7.07;;
17631;SDS011;8934;51.194;17.150;2023-05-07T04:33:34;10.00;;;6.85;;
17631;SDS011;8934;51.194;17.150;2023-05-07T04:36:23;8.02;;;6.60;;
17631;SDS011;8934;51.194;17.150;2023-05-07T04:39:19;9.52;;;6.63;;
17631;SDS011;8934;51.194;17.150;2023-05-07T04:42:07;10.40;;;7.25;;
17631;SDS011;8934;51.194;17.150;2023-05-07T04:44:56;7.68;;;6.50;;
17631;SDS011;8934;51.194;17.150;2023-05-07T04:47:45;8.40;;;6.85;;
17631;SDS011;8934;51.194;17.150;2023-05-07T04:50:32;10.18;;;6.95;;
17631;SDS011;8934;51.194;17.150;2023-05-07T04:53:21;7.90;;;6.03;;
17631;SDS011;8934;51.194;17.150;2023-05-07T04:56:09;8.77;;;6.00;;
17631;SDS011;8934;51.194;17.150;2023-05-07T04:59:00;9.75;;;6.75;;
17631;SDS011;8934;51.194;17.150;2023-05-07T05:01:48;10.32;;;6.55;;
17631;SDS011;8934;51.194;17.150;2023-05-07T05:04:38;10.30;;;6.70;;
17631;SDS011;8934;51.194;17.150;2023-05-07T05:07:25;7.97;;;5.50;;
17631;SDS011;8934;51.194;17.150;2023-05-07T05:10:13;10.65;;;7.00;;
17631;SDS011;8934;51.194;17.150;2023-05-07T05:13:02;7.28;;;5.88;;
17631;SDS011;8934;51.194;17.150;2023-05-07T05:15:50;7.03;;;5.38;;
17631;SDS011;8934;51.194;17.150;2023-05-07T05:18:37;7.10;;;5.80;;
17631;SDS011;8934;51.194;17.150;2023-05-07T05:21:28;7.53;;;5.50;;
17631;SDS011;8934;51.194;17.150;2023-05-07T05:24:22;8.07;;;5.38;;
17631;SDS011;8934;51.194;17.150;2023-05-07T05:27:10;5.78;;;5.07;;
17631;SDS011;8934;51.194;17.150;2023-05-07T05:29:58;6.95;;;6.10;;
17631;SDS011;8934;51.194;17.150;2023-05-07T05:32:46;6.88;;;5.70;;
17631;SDS011;8934;51.194;17.150;2023-05-07T05:35:34;8.07;;;5.15;;
17631;SDS011;8934;51.194;17.150;2023-05-07T05:38:25;5.72;;;4.80;;
17631;SDS011;8934;51.194;17.150;2023-05-07T05:41:13;6.57;;;5.03;;
17631;SDS011;8934;51.194;17.150;2023-05-07T05:44:01;8.80;;;4.82;;
17631;SDS011;8934;51.194;17.150;2023-05-07T05:46:48;7.88;;;5.22;;
17631;SDS011;8934;51.194;17.150;2023-05-07T05:49:37;6.25;;;5.18;;
17631;SDS011;8934;51.194;17.150;2023-05-07T05:52:25;6.47;;;4.90;;
17631;SDS011;8934;51.194;17.150;2023-05-07T05:55:15;7.72;;;4.82;;
17631;SDS011;8934;51.194;17.150;2023-05-07T05:58:04;5.40;;;4.50;;
17631;SDS011;8934;51.194;17.150;2023-05-07T06:00:55;6.45;;;4.93;;
17631;SDS011;8934;51.194;17.150;2023-05-07T06:03:45;7.43;;;4.93;;
17631;SDS011;8934;51.194;17.150;2023-05-07T06:06:33;6.93;;;5.30;;
17631;SDS011;8934;51.194;17.150;2023-05-07T06:09:21;7.22;;;5.60;;
17631;SDS011;8934;51.194;17.150;2023-05-07T06:12:10;7.50;;;5.28;;
17631;SDS011;8934;51.194;17.150;2023-05-07T06:14:59;6.07;;;4.80;;
17631;SDS011;8934;51.194;17.150;2023-05-07T06:17:47;6.40;;;4.93;;
17631;SDS011;8934;51.194;17.150;2023-05-07T06:20:35;7.15;;;5.43;;
17631;SDS011;8934;51.194;17.150;2023-05-07T06:23:27;8.20;;;5.03;;
17631;SDS011;8934;51.194;17.150;2023-05-07T06:26:15;7.72;;;5.60;;
17631;SDS011;8934;51.194;17.150;2023-05-07T06:29:06;5.00;;;4.22;;
17631;SDS011;8934;51.194;17.150;2023-05-07T06:31:54;5.60;;;4.45;;
17631;SDS011;8934;51.194;17.150;2023-05-07T06:34:41;7.60;;;4.28;;
17631;SDS011;8934;51.194;17.150;2023-05-07T06:37:30;5.93;;;3.45;;
17631;SDS011;8934;51.194;17.150;2023-05-07T06:40:21;5.88;;;3.60;;
17631;SDS011;8934;51.194;17.150;2023-05-07T06:43:09;4.35;;;3.40;;
17631;SDS011;8934;51.194;17.150;2023-05-07T06:46:21;5.75;;;3.42;;
17631;SDS011;8934;51.194;17.150;2023-05-07T06:49:08;11.00;;;6.05;;
17631;SDS011;8934;51.194;17.150;2023-05-07T06:51:56;14.35;;;7.07;;
17631;SDS011;8934;51.194;17.150;2023-05-07T06:54:44;12.38;;;5.28;;
17631;SDS011;8934;51.194;17.150;2023-05-07T06:57:34;7.70;;;4.32;;
17631;SDS011;8934;51.194;17.150;2023-05-07T07:00:22;7.45;;;3.15;;
17631;SDS011;8934;51.194;17.150;2023-05-07T07:03:13;27.33;;;10.52;;
17631;SDS011;8934;51.194;17.150;2023-05-07T07:06:01;22.92;;;8.68;;
17631;SDS011;8934;51.194;17.150;2023-05-07T07:08:49;16.13;;;7.65;;
17631;SDS011;8934;51.194;17.150;2023-05-07T07:11:36;7.40;;;4.93;;
17631;SDS011;8934;51.194;17.150;2023-05-07T07:14:24;6.10;;;4.40;;
17631;SDS011;8934;51.194;17.150;2023-05-07T07:17:13;7.28;;;4.38;;
17631;SDS011;8934;51.194;17.150;2023-05-07T07:20:02;9.43;;;4.82;;
17631;SDS011;8934;51.194;17.150;2023-05-07T07:22:50;10.65;;;5.68;;
17631;SDS011;8934;51.194;17.150;2023-05-07T07:25:37;10.50;;;6.35;;
17631;SDS011;8934;51.194;17.150;2023-05-07T07:28:26;7.03;;;4.60;;
17631;SDS011;8934;51.194;17.150;2023-05-07T07:31:13;9.20;;;5.95;;
17631;SDS011;8934;51.194;17.150;2023-05-07T07:34:01;10.00;;;6.03;;
17631;SDS011;8934;51.194;17.150;2023-05-07T07:36:51;17.77;;;7.68;;
17631;SDS011;8934;51.194;17.150;2023-05-07T07:39:39;10.25;;;5.97;;
17631;SDS011;8934;51.194;17.150;2023-05-07T07:42:27;6.22;;;4.78;;
17631;SDS011;8934;51.194;17.150;2023-05-07T07:45:16;8.00;;;5.30;;
17631;SDS011;8934;51.194;17.150;2023-05-07T07:48:06;9.38;;;5.63;;
17631;SDS011;8934;51.194;17.150;2023-05-07T07:50:55;7.20;;;5.13;;
17631;SDS011;8934;51.194;17.150;2023-05-07T07:53:44;7.68;;;5.05;;
17631;SDS011;8934;51.194;17.150;2023-05-07T07:56:32;8.38;;;5.40;;
17631;SDS011;8934;51.194;17.150;2023-05-07T07:59:22;6.32;;;5.22;;
17631;SDS011;8934;51.194;17.150;2023-05-07T08:02:09;6.80;;;5.40;;
17631;SDS011;8934;51.194;17.150;2023-05-07T08:04:57;6.55;;;4.82;;
17631;SDS011;8934;51.194;17.150;2023-05-07T08:07:45;5.82;;;4.90;;
17631;SDS011;8934;51.194;17.150;2023-05-07T08:10:42;6.03;;;5.38;;
17631;SDS011;8934;51.194;17.150;2023-05-07T08:13:38;7.05;;;5.07;;
17631;SDS011;8934;51.194;17.150;2023-05-07T08:16:25;6.45;;;5.00;;
17631;SDS011;8934;51.194;17.150;2023-05-07T08:19:16;6.65;;;5.32;;
17631;SDS011;8934;51.194;17.150;2023-05-07T08:22:04;8.10;;;5.38;;
17631;SDS011;8934;51.194;17.150;2023-05-07T08:24:52;8.20;;;6.28;;
17631;SDS011;8934;51.194;17.150;2023-05-07T08:27:41;8.35;;;6.20;;
17631;SDS011;8934;51.194;17.150;2023-05-07T08:30:31;8.60;;;5.85;;
17631;SDS011;8934;51.194;17.150;2023-05-07T08:33:19;10.13;;;6.30;;
17631;SDS011;8934;51.194;17.150;2023-05-07T08:36:07;6.80;;;4.95;;
17631;SDS011;8934;51.194;17.150;2023-05-07T08:38:55;7.20;;;5.47;;
17631;SDS011;8934;51.194;17.150;2023-05-07T08:41:43;9.13;;;5.85;;
17631;SDS011;8934;51.194;17.150;2023-05-07T08:44:34;6.22;;;5.25;;
17631;SDS011;8934;51.194;17.150;2023-05-07T08:47:22;7.28;;;5.57;;
17631;SDS011;8934;51.194;17.150;2023-05-07T08:50:13;6.40;;;5.13;;
17631;SDS011;8934;51.194;17.150;2023-05-07T08:53:02;8.13;;;5.20;;
17631;SDS011;8934;51.194;17.150;2023-05-07T08:55:50;5.55;;;4.05;;
17631;SDS011;8934;51.194;17.150;2023-05-07T08:58:39;7.03;;;4.95;;
17631;SDS011;8934;51.194;17.150;2023-05-07T09:01:28;7.93;;;5.05;;
17631;SDS011;8934;51.194;17.150;2023-05-07T09:04:16;6.20;;;4.70;;
17631;SDS011;8934;51.194;17.150;2023-05-07T09:07:04;5.95;;;4.75;;
17631;SDS011;8934;51.194;17.150;2023-05-07T09:09:56;7.47;;;5.43;;
17631;SDS011;8934;51.194;17.150;2023-05-07T09:12:46;6.55;;;4.82;;
17631;SDS011;8934;51.194;17.150;2023-05-07T09:15:34;6.60;;;5.38;;
17631;SDS011;8934;51.194;17.150;2023-05-07T09:18:24;7.63;;;5.78;;
17631;SDS011;8934;51.194;17.150;2023-05-07T09:21:14;11.55;;;6.45;;
17631;SDS011;8934;51.194;17.150;2023-05-07T09:24:05;6.95;;;5.38;;
17631;SDS011;8934;51.194;17.150;2023-05-07T09:26:57;10.27;;;5.60;;
17631;SDS011;8934;51.194;17.150;2023-05-07T09:29:46;6.35;;;5.10;;
17631;SDS011;8934;51.194;17.150;2023-05-07T09:32:35;7.65;;;5.47;;
17631;SDS011;8934;51.194;17.150;2023-05-07T09:35:27;5.95;;;4.60;;
17631;SDS011;8934;51.194;17.150;2023-05-07T09:38:20;5.72;;;5.00;;
17631;SDS011;8934;51.194;17.150;2023-05-07T09:41:13;5.93;;;5.22;;
17631;SDS011;8934;51.194;17.150;2023-05-07T09:44:14;6.00;;;4.55;;
17631;SDS011;8934;51.194;17.150;2023-05-07T09:47:06;6.03;;;4.28;;
17631;SDS011;8934;51.194;17.150;2023-05-07T09:50:00;4.78;;;4.32;;
17631;SDS011;8934;51.194;17.150;2023-05-07T09:52:53;5.97;;;4.28;;
17631;SDS011;8934;51.194;17.150;2023-05-07T09:55:43;5.00;;;4.40;;
17631;SDS011;8934;51.194;17.150;2023-05-07T09:58:33;4.30;;;3.83;;
17631;SDS011;8934;51.194;17.150;2023-05-07T10:01:23;5.53;;;3.63;;
17631;SDS011;8934;51.194;17.150;2023-05-07T10:04:13;5.13;;;3.42;;
17631;SDS011;8934;51.194;17.150;2023-05-07T10:07:03;4.07;;;3.67;;
17631;SDS011;8934;51.194;17.150;2023-05-07T10:09:55;6.20;;;3.33;;
17631;SDS011;8934;51.194;17.150;2023-05-07T10:12:53;4.53;;;3.13;;
17631;SDS011;8934;51.194;17.150;2023-05-07T10:15:49;3.85;;;3.45;;
17631;SDS011;8934;51.194;17.150;2023-05-07T10:18:38;4.38;;;3.58;;
17631;SDS011;8934;51.194;17.150;2023-05-07T10:21:34;5.88;;;3.67;;
17631;SDS011;8934;51.194;17.150;2023-05-07T10:24:25;5.60;;;3.22;;
17631;SDS011;8934;51.194;17.150;2023-05-07T10:27:16;4.38;;;3.28;;
17631;SDS011;8934;51.194;17.150;2023-05-07T10:30:12;4.82;;;3.20;;
17631;SDS011;8934;51.194;17.150;2023-05-07T10:33:13;4.60;;;3.47;;
17631;SDS011;8934;51.194;17.150;2023-05-07T10:36:07;4.82;;;3.95;;
17631;SDS011;8934;51.194;17.150;2023-05-07T10:38:55;6.28;;;4.68;;
17631;SDS011;8934;51.194;17.150;2023-05-07T10:41:43;4.20;;;3.58;;
17631;SDS011;8934;51.194;17.150;2023-05-07T10:44:32;4.70;;;3.47;;
17631;SDS011;8934;51.194;17.150;2023-05-07T10:47:25;4.13;;;3.50;;
17631;SDS011;8934;51.194;17.150;2023-05-07T10:50:20;4.95;;;3.53;;
17631;SDS011;8934;51.194;17.150;2023-05-07T10:53:23;5.07;;;3.28;;
17631;SDS011;8934;51.194;17.150;2023-05-07T10:56:37;7.22;;;3.95;;
17631;SDS011;8934;51.194;17.150;2023-05-07T10:59:30;4.05;;;3.10;;
17631;SDS011;8934;51.194;17.150;2023-05-07T11:06:09;5.30;;;3.53;;
17631;SDS011;8934;51.194;17.150;2023-05-07T11:09:18;4.78;;;3.85;;
17631;SDS011;8934;51.194;17.150;2023-05-07T11:12:14;4.47;;;3.50;;
17631;SDS011;8934;51.194;17.150;2023-05-07T11:15:10;5.15;;;3.90;;
17631;SDS011;8934;51.194;17.150;2023-05-07T11:17:59;4.40;;;2.97;;
17631;SDS011;8934;51.194;17.150;2023-05-07T11:20:54;4.10;;;2.88;;
17631;SDS011;8934;51.194;17.150;2023-05-07T11:23:55;4.65;;;3.60;;
17631;SDS011;8934;51.194;17.150;2023-05-07T11:27:00;4.22;;;3.13;;
17631;SDS011;8934;51.194;17.150;2023-05-07T11:29:49;3.10;;;2.78;;
17631;SDS011;8934;51.194;17.150;2023-05-07T11:32:39;4.22;;;3.22;;
17631;SDS011;8934;51.194;17.150;2023-05-07T11:35:28;6.18;;;3.60;;
17631;SDS011;8934;51.194;17.150;2023-05-07T11:38:16;3.78;;;3.00;;
17631;SDS011;8934;51.194;17.150;2023-05-07T11:41:07;3.42;;;2.75;;
17631;SDS011;8934;51.194;17.150;2023-05-07T11:43:56;4.45;;;3.20;;
17631;SDS011;8934;51.194;17.150;2023-05-07T11:46:45;4.60;;;3.40;;
17631;SDS011;8934;51.194;17.150;2023-05-07T11:49:34;4.53;;;4.00;;
17631;SDS011;8934;51.194;17.150;2023-05-07T11:52:23;4.55;;;3.78;;
17631;SDS011;8934;51.194;17.150;2023-05-07T11:55:11;4.90;;;3.58;;
17631;SDS011;8934;51.194;17.150;2023-05-07T11:57:59;4.15;;;3.40;;
17631;SDS011;8934;51.194;17.150;2023-05-07T12:00:48;3.97;;;3.40;;
17631;SDS011;8934;51.194;17.150;2023-05-07T12:03:36;8.75;;;4.40;;
17631;SDS011;8934;51.194;17.150;2023-05-07T12:06:25;5.22;;;3.83;;
17631;SDS011;8934;51.194;17.150;2023-05-07T12:09:13;3.90;;;3.38;;
17631;SDS011;8934;51.194;17.150;2023-05-07T12:12:03;4.35;;;3.65;;
17631;SDS011;8934;51.194;17.150;2023-05-07T12:14:51;4.72;;;3.40;;
17631;SDS011;8934;51.194;17.150;2023-05-07T12:17:39;4.53;;;3.75;;
17631;SDS011;8934;51.194;17.150;2023-05-07T12:20:27;5.68;;;4.30;;
17631;SDS011;8934;51.194;17.150;2023-05-07T12:23:17;7.07;;;4.28;;
17631;SDS011;8934;51.194;17.150;2023-05-07T12:26:04;5.80;;;4.28;;
17631;SDS011;8934;51.194;17.150;2023-05-07T12:28:54;4.88;;;4.18;;
17631;SDS011;8934;51.194;17.150;2023-05-07T12:31:41;5.68;;;4.55;;
17631;SDS011;8934;51.194;17.150;2023-05-07T12:34:30;5.30;;;4.40;;
17631;SDS011;8934;51.194;17.150;2023-05-07T12:37:22;5.93;;;4.60;;
17631;SDS011;8934;51.194;17.150;2023-05-07T12:40:12;8.75;;;4.18;;
17631;SDS011;8934;51.194;17.150;2023-05-07T12:43:00;4.82;;;4.30;;
17631;SDS011;8934;51.194;17.150;2023-05-07T12:45:49;7.00;;;5.18;;
17631;SDS011;8934;51.194;17.150;2023-05-07T12:48:38;5.70;;;4.53;;
17631;SDS011;8934;51.194;17.150;2023-05-07T12:51:31;6.07;;;5.25;;
17631;SDS011;8934;51.194;17.150;2023-05-07T12:54:27;6.35;;;5.10;;
17631;SDS011;8934;51.194;17.150;2023-05-07T12:57:19;6.75;;;5.15;;
17631;SDS011;8934;51.194;17.150;2023-05-07T13:00:08;5.80;;;5.00;;
17631;SDS011;8934;51.194;17.150;2023-05-07T13:02:56;8.13;;;5.18;;
17631;SDS011;8934;51.194;17.150;2023-05-07T13:05:45;5.47;;;4.93;;
17631;SDS011;8934;51.194;17.150;2023-05-07T13:08:34;4.75;;;4.35;;
17631;SDS011;8934;51.194;17.150;2023-05-07T13:11:23;6.22;;;4.75;;
17631;SDS011;8934;51.194;17.150;2023-05-07T13:14:12;6.13;;;4.45;;
17631;SDS011;8934;51.194;17.150;2023-05-07T13:16:59;5.63;;;4.10;;
17631;SDS011;8934;51.194;17.150;2023-05-07T13:19:47;5.85;;;4.20;;
17631;SDS011;8934;51.194;17.150;2023-05-07T13:22:34;5.43;;;4.25;;
17631;SDS011;8934;51.194;17.150;2023-05-07T13:25:22;5.13;;;4.32;;
17631;SDS011;8934;51.194;17.150;2023-05-07T13:28:11;4.05;;;3.42;;
17631;SDS011;8934;51.194;17.150;2023-05-07T13:30:59;4.93;;;3.78;;
17631;SDS011;8934;51.194;17.150;2023-05-07T13:33:48;6.03;;;3.97;;
17631;SDS011;8934;51.194;17.150;2023-05-07T13:36:36;4.63;;;3.97;;
17631;SDS011;8934;51.194;17.150;2023-05-07T13:39:25;4.68;;;3.90;;
17631;SDS011;8934;51.194;17.150;2023-05-07T13:42:13;5.15;;;3.65;;
17631;SDS011;8934;51.194;17.150;2023-05-07T13:45:01;4.03;;;3.40;;
17631;SDS011;8934;51.194;17.150;2023-05-07T13:47:52;4.90;;;3.50;;
17631;SDS011;8934;51.194;17.150;2023-05-07T13:50:40;9.38;;;3.60;;
17631;SDS011;8934;51.194;17.150;2023-05-07T13:53:27;4.50;;;3.70;;
17631;SDS011;8934;51.194;17.150;2023-05-07T13:56:15;4.40;;;3.50;;
17631;SDS011;8934;51.194;17.150;2023-05-07T13:59:03;5.20;;;4.00;;
17631;SDS011;8934;51.194;17.150;2023-05-07T14:01:51;4.72;;;3.67;;
17631;SDS011;8934;51.194;17.150;2023-05-07T14:04:39;4.05;;;3.38;;
17631;SDS011;8934;51.194;17.150;2023-05-07T14:07:27;5.93;;;3.58;;
17631;SDS011;8934;51.194;17.150;2023-05-07T14:10:15;4.85;;;3.45;;
17631;SDS011;8934;51.194;17.150;2023-05-07T14:13:02;7.45;;;3.75;;
17631;SDS011;8934;51.194;17.150;2023-05-07T14:15:50;5.95;;;3.90;;
17631;SDS011;8934;51.194;17.150;2023-05-07T14:18:37;4.47;;;3.45;;
17631;SDS011;8934;51.194;17.150;2023-05-07T14:21:26;5.07;;;3.67;;
17631;SDS011;8934;51.194;17.150;2023-05-07T14:24:14;4.95;;;3.58;;
17631;SDS011;8934;51.194;17.150;2023-05-07T14:27:21;12.55;;;6.25;;
17631;SDS011;8934;51.194;17.150;2023-05-07T14:30:09;11.90;;;8.43;;
17631;SDS011;8934;51.194;17.150;2023-05-07T14:32:57;7.88;;;4.97;;
17631;SDS011;8934;51.194;17.150;2023-05-07T14:35:45;5.53;;;4.03;;
17631;SDS011;8934;51.194;17.150;2023-05-07T14:38:36;6.00;;;4.28;;
17631;SDS011;8934;51.194;17.150;2023-05-07T14:41:24;4.93;;;4.00;;
17631;SDS011;8934;51.194;17.150;2023-05-07T14:44:12;6.45;;;4.55;;
17631;SDS011;8934;51.194;17.150;2023-05-07T14:46:59;6.63;;;4.40;;
17631;SDS011;8934;51.194;17.150;2023-05-07T14:49:47;5.65;;;4.45;;
17631;SDS011;8934;51.194;17.150;2023-05-07T14:52:35;6.78;;;4.85;;
17631;SDS011;8934;51.194;17.150;2023-05-07T14:55:23;7.15;;;4.47;;
17631;SDS011;8934;51.194;17.150;2023-05-07T14:58:11;5.93;;;4.63;;
17631;SDS011;8934;51.194;17.150;2023-05-07T15:00:59;6.63;;;4.20;;
17631;SDS011;8934;51.194;17.150;2023-05-07T15:03:47;6.05;;;5.05;;
17631;SDS011;8934;51.194;17.150;2023-05-07T15:06:35;3.95;;;3.53;;
17631;SDS011;8934;51.194;17.150;2023-05-07T15:09:23;5.78;;;4.00;;
17631;SDS011;8934;51.194;17.150;2023-05-07T15:12:12;5.60;;;4.05;;
17631;SDS011;8934;51.194;17.150;2023-05-07T15:15:00;5.65;;;4.03;;
17631;SDS011;8934;51.194;17.150;2023-05-07T15:17:48;5.43;;;4.57;;
17631;SDS011;8934;51.194;17.150;2023-05-07T15:20:35;4.88;;;3.47;;
17631;SDS011;8934;51.194;17.150;2023-05-07T15:23:23;3.92;;;3.55;;
17631;SDS011;8934;51.194;17.150;2023-05-07T15:26:12;5.15;;;4.35;;
17631;SDS011;8934;51.194;17.150;2023-05-07T15:29:01;3.60;;;3.30;;
17631;SDS011;8934;51.194;17.150;2023-05-07T15:31:53;5.43;;;4.10;;
17631;SDS011;8934;51.194;17.150;2023-05-07T15:34:41;4.05;;;3.65;;
17631;SDS011;8934;51.194;17.150;2023-05-07T15:37:30;5.72;;;3.80;;
17631;SDS011;8934;51.194;17.150;2023-05-07T15:40:18;6.10;;;3.58;;
17631;SDS011;8934;51.194;17.150;2023-05-07T15:43:05;4.20;;;3.38;;
17631;SDS011;8934;51.194;17.150;2023-05-07T15:45:54;6.63;;;4.35;;
17631;SDS011;8934;51.194;17.150;2023-05-07T15:48:42;6.25;;;4.40;;
17631;SDS011;8934;51.194;17.150;2023-05-07T15:51:29;5.80;;;3.90;;
17631;SDS011;8934;51.194;17.150;2023-05-07T15:54:17;6.55;;;4.45;;
17631;SDS011;8934;51.194;17.150;2023-05-07T15:57:05;7.13;;;4.55;;
17631;SDS011;8934;51.194;17.150;2023-05-07T15:59:53;4.75;;;4.25;;
17631;SDS011;8934;51.194;17.150;2023-05-07T16:02:42;7.90;;;4.90;;
17631;SDS011;8934;51.194;17.150;2023-05-07T16:05:30;5.97;;;4.78;;
17631;SDS011;8934;51.194;17.150;2023-05-07T16:08:17;6.43;;;5.22;;
17631;SDS011;8934;51.194;17.150;2023-05-07T16:11:05;6.68;;;4.80;;
17631;SDS011;8934;51.194;17.150;2023-05-07T16:13:53;6.25;;;4.43;;
17631;SDS011;8934;51.194;17.150;2023-05-07T16:16:41;7.22;;;4.57;;
17631;SDS011;8934;51.194;17.150;2023-05-07T16:19:30;6.00;;;4.60;;
17631;SDS011;8934;51.194;17.150;2023-05-07T16:22:17;6.60;;;5.25;;
17631;SDS011;8934;51.194;17.150;2023-05-07T16:25:05;5.70;;;4.72;;
17631;SDS011;8934;51.194;17.150;2023-05-07T16:27:54;6.07;;;5.03;;
17631;SDS011;8934;51.194;17.150;2023-05-07T16:30:41;6.55;;;4.40;;
17631;SDS011;8934;51.194;17.150;2023-05-07T16:33:29;7.65;;;4.78;;
17631;SDS011;8934;51.194;17.150;2023-05-07T16:36:18;12.68;;;5.57;;
17631;SDS011;8934;51.194;17.150;2023-05-07T16:39:06;6.05;;;5.18;;
17631;SDS011;8934;51.194;17.150;2023-05-07T16:41:54;6.82;;;5.28;;
17631;SDS011;8934;51.194;17.150;2023-05-07T16:44:42;8.52;;;5.03;;
17631;SDS011;8934;51.194;17.150;2023-05-07T16:47:29;8.10;;;4.90;;
17631;SDS011;8934;51.194;17.150;2023-05-07T16:50:17;6.63;;;5.00;;
17631;SDS011;8934;51.194;17.150;2023-05-07T16:53:06;5.60;;;4.70;;
17631;SDS011;8934;51.194;17.150;2023-05-07T16:55:54;5.57;;;4.45;;
17631;SDS011;8934;51.194;17.150;2023-05-07T16:58:42;6.18;;;4.20;;
17631;SDS011;8934;51.194;17.150;2023-05-07T17:01:29;5.13;;;3.80;;